Saline City, Indiana
Current Conditions -  °F | °C
As of 5:53 AM on Thursday 23 Oct 2014 (Local Time) from KHUF Reporting Station
Clear Clear  
Wind Chill: 37°   Ceiling: Unl
Heat Index: 37°   Visibility: 8mi
Dew Point: 35°   Wind: 3mph
Humidity: 93%   Direction: 100°E
Pressure: 30.26"   Gusts: NA
Location:  39.3787°N, 87.0992°W
Report Text: KHUF 230953Z AUTO 10003KT 8SM CLR 03/02 A3026 RMK AO2 SLP247 T00280017
Loading
Personal Weather Stations






























Interactive Weather Map
Tropical Storm Tracking
New forecast layout! Learn more

10-Day Weather Forecast

Advertisements
Track Severe Weather on mobile